sensor_id;sensor_type;location;lat;lon;timestamp;P1;durP1;ratioP1;P2;durP2;ratioP2
4726;SDS011;2377;51.734;8.950;2023-06-10T00:01:42;6.00;;;4.20;;
4726;SDS011;2377;51.734;8.950;2023-06-10T00:04:13;6.20;;;4.57;;
4726;SDS011;2377;51.734;8.950;2023-06-10T00:06:41;7.00;;;3.83;;
4726;SDS011;2377;51.734;8.950;2023-06-10T00:09:11;5.87;;;4.40;;
4726;SDS011;2377;51.734;8.950;2023-06-10T00:11:39;5.70;;;3.73;;
4726;SDS011;2377;51.734;8.950;2023-06-10T00:14:06;6.70;;;4.07;;
4726;SDS011;2377;51.734;8.950;2023-06-10T00:16:34;6.43;;;4.03;;
4726;SDS011;2377;51.734;8.950;2023-06-10T00:19:04;6.30;;;3.97;;
4726;SDS011;2377;51.734;8.950;2023-06-10T00:21:33;8.73;;;4.40;;
4726;SDS011;2377;51.734;8.950;2023-06-10T00:24:02;7.30;;;4.40;;
4726;SDS011;2377;51.734;8.950;2023-06-10T00:26:33;8.40;;;4.07;;
4726;SDS011;2377;51.734;8.950;2023-06-10T00:29:00;7.10;;;4.27;;
4726;SDS011;2377;51.734;8.950;2023-06-10T00:31:27;6.10;;;4.13;;
4726;SDS011;2377;51.734;8.950;2023-06-10T00:33:55;6.87;;;3.83;;
4726;SDS011;2377;51.734;8.950;2023-06-10T00:36:23;6.50;;;4.43;;
4726;SDS011;2377;51.734;8.950;2023-06-10T00:38:51;6.00;;;3.93;;
4726;SDS011;2377;51.734;8.950;2023-06-10T00:41:18;5.93;;;3.70;;
4726;SDS011;2377;51.734;8.950;2023-06-10T00:43:46;7.77;;;4.00;;
4726;SDS011;2377;51.734;8.950;2023-06-10T00:46:13;6.33;;;3.90;;
4726;SDS011;2377;51.734;8.950;2023-06-10T00:48:42;7.70;;;4.23;;
4726;SDS011;2377;51.734;8.950;2023-06-10T00:51:11;6.17;;;3.80;;
4726;SDS011;2377;51.734;8.950;2023-06-10T00:53:39;6.80;;;3.47;;
4726;SDS011;2377;51.734;8.950;2023-06-10T00:56:07;5.80;;;3.30;;
4726;SDS011;2377;51.734;8.950;2023-06-10T00:58:35;5.33;;;3.93;;
4726;SDS011;2377;51.734;8.950;2023-06-10T01:01:04;6.50;;;3.67;;
4726;SDS011;2377;51.734;8.950;2023-06-10T01:03:31;5.80;;;3.50;;
4726;SDS011;2377;51.734;8.950;2023-06-10T01:06:03;5.13;;;3.67;;
4726;SDS011;2377;51.734;8.950;2023-06-10T01:08:45;6.33;;;3.47;;
4726;SDS011;2377;51.734;8.950;2023-06-10T01:11:21;8.07;;;4.03;;
4726;SDS011;2377;51.734;8.950;2023-06-10T01:13:55;7.30;;;3.40;;
4726;SDS011;2377;51.734;8.950;2023-06-10T01:16:26;5.27;;;3.53;;
4726;SDS011;2377;51.734;8.950;2023-06-10T01:18:53;8.17;;;4.33;;
4726;SDS011;2377;51.734;8.950;2023-06-10T01:21:22;8.73;;;4.10;;
4726;SDS011;2377;51.734;8.950;2023-06-10T01:23:52;4.90;;;3.60;;
4726;SDS011;2377;51.734;8.950;2023-06-10T01:26:22;5.80;;;3.50;;
4726;SDS011;2377;51.734;8.950;2023-06-10T01:28:57;4.60;;;3.60;;
4726;SDS011;2377;51.734;8.950;2023-06-10T01:31:34;5.00;;;3.37;;
4726;SDS011;2377;51.734;8.950;2023-06-10T01:34:14;5.20;;;3.53;;
4726;SDS011;2377;51.734;8.950;2023-06-10T01:36:47;6.00;;;3.40;;
4726;SDS011;2377;51.734;8.950;2023-06-10T01:39:15;5.60;;;3.60;;
4726;SDS011;2377;51.734;8.950;2023-06-10T01:41:46;5.70;;;3.63;;
4726;SDS011;2377;51.734;8.950;2023-06-10T01:44:17;6.07;;;3.60;;
4726;SDS011;2377;51.734;8.950;2023-06-10T01:46:45;6.17;;;3.97;;
4726;SDS011;2377;51.734;8.950;2023-06-10T01:49:12;5.00;;;3.40;;
4726;SDS011;2377;51.734;8.950;2023-06-10T01:51:39;5.47;;;3.87;;
4726;SDS011;2377;51.734;8.950;2023-06-10T01:54:08;6.77;;;3.50;;
4726;SDS011;2377;51.734;8.950;2023-06-10T01:56:35;5.40;;;3.40;;
4726;SDS011;2377;51.734;8.950;2023-06-10T01:59:02;5.97;;;3.33;;
4726;SDS011;2377;51.734;8.950;2023-06-10T02:01:30;5.10;;;3.27;;
4726;SDS011;2377;51.734;8.950;2023-06-10T02:03:57;7.30;;;3.33;;
4726;SDS011;2377;51.734;8.950;2023-06-10T02:06:24;5.40;;;3.47;;
4726;SDS011;2377;51.734;8.950;2023-06-10T02:08:51;6.37;;;3.87;;
4726;SDS011;2377;51.734;8.950;2023-06-10T02:11:19;4.57;;;3.23;;
4726;SDS011;2377;51.734;8.950;2023-06-10T02:13:46;5.73;;;3.20;;
4726;SDS011;2377;51.734;8.950;2023-06-10T02:16:14;8.50;;;3.80;;
4726;SDS011;2377;51.734;8.950;2023-06-10T02:18:42;5.50;;;3.43;;
4726;SDS011;2377;51.734;8.950;2023-06-10T02:21:09;5.20;;;3.40;;
4726;SDS011;2377;51.734;8.950;2023-06-10T02:23:37;6.53;;;3.83;;
4726;SDS011;2377;51.734;8.950;2023-06-10T02:26:04;7.60;;;4.10;;
4726;SDS011;2377;51.734;8.950;2023-06-10T02:28:32;5.53;;;3.33;;
4726;SDS011;2377;51.734;8.950;2023-06-10T02:30:59;6.00;;;3.70;;
4726;SDS011;2377;51.734;8.950;2023-06-10T02:33:26;7.27;;;3.40;;
4726;SDS011;2377;51.734;8.950;2023-06-10T02:35:53;5.37;;;3.20;;
4726;SDS011;2377;51.734;8.950;2023-06-10T02:38:21;5.43;;;3.10;;
4726;SDS011;2377;51.734;8.950;2023-06-10T02:40:48;5.60;;;3.17;;
4726;SDS011;2377;51.734;8.950;2023-06-10T02:43:15;5.20;;;3.53;;
4726;SDS011;2377;51.734;8.950;2023-06-10T02:45:43;5.80;;;3.27;;
4726;SDS011;2377;51.734;8.950;2023-06-10T02:48:10;4.77;;;3.27;;
4726;SDS011;2377;51.734;8.950;2023-06-10T02:50:37;6.37;;;3.50;;
4726;SDS011;2377;51.734;8.950;2023-06-10T02:53:05;5.60;;;3.60;;
4726;SDS011;2377;51.734;8.950;2023-06-10T02:55:33;5.60;;;3.87;;
4726;SDS011;2377;51.734;8.950;2023-06-10T02:58:00;4.67;;;3.17;;
4726;SDS011;2377;51.734;8.950;2023-06-10T03:00:27;7.10;;;3.80;;
4726;SDS011;2377;51.734;8.950;2023-06-10T03:02:56;5.20;;;3.30;;
4726;SDS011;2377;51.734;8.950;2023-06-10T03:05:23;4.73;;;3.17;;
4726;SDS011;2377;51.734;8.950;2023-06-10T03:07:50;5.67;;;2.90;;
4726;SDS011;2377;51.734;8.950;2023-06-10T03:10:17;5.70;;;3.20;;
4726;SDS011;2377;51.734;8.950;2023-06-10T03:12:44;5.97;;;3.13;;
4726;SDS011;2377;51.734;8.950;2023-06-10T03:15:11;6.53;;;3.10;;
4726;SDS011;2377;51.734;8.950;2023-06-10T03:17:39;5.13;;;3.10;;
4726;SDS011;2377;51.734;8.950;2023-06-10T03:20:08;8.27;;;4.17;;
4726;SDS011;2377;51.734;8.950;2023-06-10T03:22:37;5.27;;;3.30;;
4726;SDS011;2377;51.734;8.950;2023-06-10T03:25:04;5.80;;;3.27;;
4726;SDS011;2377;51.734;8.950;2023-06-10T03:27:33;7.80;;;3.73;;
4726;SDS011;2377;51.734;8.950;2023-06-10T03:30:00;6.60;;;3.63;;
4726;SDS011;2377;51.734;8.950;2023-06-10T03:32:28;5.80;;;3.50;;
4726;SDS011;2377;51.734;8.950;2023-06-10T03:34:55;6.70;;;3.70;;
4726;SDS011;2377;51.734;8.950;2023-06-10T03:37:24;6.60;;;3.03;;
4726;SDS011;2377;51.734;8.950;2023-06-10T03:39:51;5.30;;;3.50;;
4726;SDS011;2377;51.734;8.950;2023-06-10T03:42:18;4.23;;;3.00;;
4726;SDS011;2377;51.734;8.950;2023-06-10T03:44:45;4.93;;;3.30;;
4726;SDS011;2377;51.734;8.950;2023-06-10T03:47:12;6.30;;;3.47;;
4726;SDS011;2377;51.734;8.950;2023-06-10T03:49:39;5.10;;;3.30;;
4726;SDS011;2377;51.734;8.950;2023-06-10T03:52:06;6.17;;;3.60;;
4726;SDS011;2377;51.734;8.950;2023-06-10T03:54:35;6.23;;;3.37;;
4726;SDS011;2377;51.734;8.950;2023-06-10T03:57:05;7.33;;;3.53;;
4726;SDS011;2377;51.734;8.950;2023-06-10T03:59:32;7.30;;;3.53;;
4726;SDS011;2377;51.734;8.950;2023-06-10T04:01:59;5.60;;;3.53;;
4726;SDS011;2377;51.734;8.950;2023-06-10T04:04:26;6.87;;;3.77;;
4726;SDS011;2377;51.734;8.950;2023-06-10T04:06:53;8.00;;;4.10;;
4726;SDS011;2377;51.734;8.950;2023-06-10T04:09:21;6.90;;;3.70;;
4726;SDS011;2377;51.734;8.950;2023-06-10T04:11:49;8.03;;;3.70;;
4726;SDS011;2377;51.734;8.950;2023-06-10T04:14:16;8.13;;;3.73;;
4726;SDS011;2377;51.734;8.950;2023-06-10T04:16:43;5.00;;;3.60;;
4726;SDS011;2377;51.734;8.950;2023-06-10T04:19:10;6.60;;;3.83;;
4726;SDS011;2377;51.734;8.950;2023-06-10T04:21:37;5.20;;;3.50;;
4726;SDS011;2377;51.734;8.950;2023-06-10T04:24:04;4.73;;;3.20;;
4726;SDS011;2377;51.734;8.950;2023-06-10T04:26:32;5.80;;;3.60;;
4726;SDS011;2377;51.734;8.950;2023-06-10T04:29:04;5.53;;;3.20;;
4726;SDS011;2377;51.734;8.950;2023-06-10T04:31:31;7.10;;;3.50;;
4726;SDS011;2377;51.734;8.950;2023-06-10T04:33:59;7.37;;;3.67;;
4726;SDS011;2377;51.734;8.950;2023-06-10T04:36:26;5.60;;;3.47;;
4726;SDS011;2377;51.734;8.950;2023-06-10T04:38:54;5.93;;;3.40;;
4726;SDS011;2377;51.734;8.950;2023-06-10T04:41:21;7.33;;;3.67;;
4726;SDS011;2377;51.734;8.950;2023-06-10T04:43:48;7.67;;;4.13;;
4726;SDS011;2377;51.734;8.950;2023-06-10T04:46:16;6.00;;;3.37;;
4726;SDS011;2377;51.734;8.950;2023-06-10T04:48:44;6.17;;;3.03;;
4726;SDS011;2377;51.734;8.950;2023-06-10T04:51:12;6.87;;;3.60;;
4726;SDS011;2377;51.734;8.950;2023-06-10T04:53:42;6.57;;;3.73;;
4726;SDS011;2377;51.734;8.950;2023-06-10T04:56:10;6.00;;;4.00;;
4726;SDS011;2377;51.734;8.950;2023-06-10T04:58:37;10.13;;;4.40;;
4726;SDS011;2377;51.734;8.950;2023-06-10T05:01:04;4.47;;;3.03;;
4726;SDS011;2377;51.734;8.950;2023-06-10T05:03:32;6.53;;;3.47;;
4726;SDS011;2377;51.734;8.950;2023-06-10T05:05:59;6.40;;;3.30;;
4726;SDS011;2377;51.734;8.950;2023-06-10T05:08:26;9.20;;;4.37;;
4726;SDS011;2377;51.734;8.950;2023-06-10T05:10:53;6.83;;;4.50;;
4726;SDS011;2377;51.734;8.950;2023-06-10T05:13:20;7.20;;;4.03;;
4726;SDS011;2377;51.734;8.950;2023-06-10T05:15:47;7.10;;;3.80;;
4726;SDS011;2377;51.734;8.950;2023-06-10T05:18:14;7.87;;;3.90;;
4726;SDS011;2377;51.734;8.950;2023-06-10T05:20:43;8.53;;;4.43;;
4726;SDS011;2377;51.734;8.950;2023-06-10T05:23:10;8.97;;;4.30;;
4726;SDS011;2377;51.734;8.950;2023-06-10T05:25:37;7.50;;;3.83;;
4726;SDS011;2377;51.734;8.950;2023-06-10T05:28:04;8.93;;;4.40;;
4726;SDS011;2377;51.734;8.950;2023-06-10T05:30:34;9.33;;;4.10;;
4726;SDS011;2377;51.734;8.950;2023-06-10T05:33:02;7.30;;;4.30;;
4726;SDS011;2377;51.734;8.950;2023-06-10T05:35:30;5.53;;;3.83;;
4726;SDS011;2377;51.734;8.950;2023-06-10T05:37:58;9.00;;;4.40;;
4726;SDS011;2377;51.734;8.950;2023-06-10T05:40:25;7.37;;;4.33;;
4726;SDS011;2377;51.734;8.950;2023-06-10T05:42:52;7.20;;;4.10;;
4726;SDS011;2377;51.734;8.950;2023-06-10T05:45:19;9.43;;;4.37;;
4726;SDS011;2377;51.734;8.950;2023-06-10T05:47:46;8.47;;;4.00;;
4726;SDS011;2377;51.734;8.950;2023-06-10T05:50:13;7.50;;;4.33;;
4726;SDS011;2377;51.734;8.950;2023-06-10T05:52:42;5.63;;;3.37;;
4726;SDS011;2377;51.734;8.950;2023-06-10T05:55:11;5.70;;;3.97;;
4726;SDS011;2377;51.734;8.950;2023-06-10T05:57:40;7.30;;;3.60;;
4726;SDS011;2377;51.734;8.950;2023-06-10T06:00:08;6.80;;;4.50;;
4726;SDS011;2377;51.734;8.950;2023-06-10T06:02:36;6.67;;;3.83;;
4726;SDS011;2377;51.734;8.950;2023-06-10T06:05:03;5.40;;;3.27;;
4726;SDS011;2377;51.734;8.950;2023-06-10T06:07:31;6.93;;;4.07;;
4726;SDS011;2377;51.734;8.950;2023-06-10T06:09:59;8.30;;;3.83;;
4726;SDS011;2377;51.734;8.950;2023-06-10T06:12:27;8.93;;;4.30;;
4726;SDS011;2377;51.734;8.950;2023-06-10T06:14:54;9.30;;;4.30;;
4726;SDS011;2377;51.734;8.950;2023-06-10T06:17:21;9.07;;;3.80;;
4726;SDS011;2377;51.734;8.950;2023-06-10T06:19:48;6.30;;;3.60;;
4726;SDS011;2377;51.734;8.950;2023-06-10T06:22:15;7.30;;;3.47;;
4726;SDS011;2377;51.734;8.950;2023-06-10T06:24:45;8.23;;;3.90;;
4726;SDS011;2377;51.734;8.950;2023-06-10T06:27:12;6.00;;;3.50;;
4726;SDS011;2377;51.734;8.950;2023-06-10T06:29:41;5.90;;;3.30;;
4726;SDS011;2377;51.734;8.950;2023-06-10T06:32:08;7.23;;;3.83;;
4726;SDS011;2377;51.734;8.950;2023-06-10T06:34:35;8.43;;;3.73;;
4726;SDS011;2377;51.734;8.950;2023-06-10T06:37:02;6.57;;;4.07;;
4726;SDS011;2377;51.734;8.950;2023-06-10T06:39:30;5.00;;;3.40;;
4726;SDS011;2377;51.734;8.950;2023-06-10T06:41:57;4.77;;;3.23;;
4726;SDS011;2377;51.734;8.950;2023-06-10T06:44:24;5.00;;;3.30;;
4726;SDS011;2377;51.734;8.950;2023-06-10T06:46:52;4.97;;;3.20;;
4726;SDS011;2377;51.734;8.950;2023-06-10T06:49:19;6.53;;;4.03;;
4726;SDS011;2377;51.734;8.950;2023-06-10T06:51:46;4.73;;;3.20;;
4726;SDS011;2377;51.734;8.950;2023-06-10T06:54:13;5.17;;;3.37;;
4726;SDS011;2377;51.734;8.950;2023-06-10T06:56:40;6.03;;;3.30;;
4726;SDS011;2377;51.734;8.950;2023-06-10T06:59:07;5.13;;;2.97;;
4726;SDS011;2377;51.734;8.950;2023-06-10T07:01:35;4.90;;;3.17;;
4726;SDS011;2377;51.734;8.950;2023-06-10T07:04:03;5.20;;;3.40;;
4726;SDS011;2377;51.734;8.950;2023-06-10T07:06:30;8.63;;;4.13;;
4726;SDS011;2377;51.734;8.950;2023-06-10T07:08:57;4.20;;;2.93;;
4726;SDS011;2377;51.734;8.950;2023-06-10T07:11:24;5.40;;;3.17;;
4726;SDS011;2377;51.734;8.950;2023-06-10T07:13:51;5.50;;;3.77;;
4726;SDS011;2377;51.734;8.950;2023-06-10T07:16:18;5.03;;;3.33;;
4726;SDS011;2377;51.734;8.950;2023-06-10T07:18:47;9.67;;;3.60;;
4726;SDS011;2377;51.734;8.950;2023-06-10T07:21:15;6.03;;;3.57;;
4726;SDS011;2377;51.734;8.950;2023-06-10T07:23:42;5.77;;;3.53;;
4726;SDS011;2377;51.734;8.950;2023-06-10T07:26:11;6.80;;;3.50;;
4726;SDS011;2377;51.734;8.950;2023-06-10T07:28:38;6.73;;;4.27;;
4726;SDS011;2377;51.734;8.950;2023-06-10T07:31:07;7.17;;;3.80;;
4726;SDS011;2377;51.734;8.950;2023-06-10T07:33:36;6.27;;;3.50;;
4726;SDS011;2377;51.734;8.950;2023-06-10T07:36:04;5.20;;;3.27;;
4726;SDS011;2377;51.734;8.950;2023-06-10T07:38:33;6.33;;;3.90;;
4726;SDS011;2377;51.734;8.950;2023-06-10T07:41:00;6.17;;;3.73;;
4726;SDS011;2377;51.734;8.950;2023-06-10T07:43:27;6.50;;;4.00;;
4726;SDS011;2377;51.734;8.950;2023-06-10T07:45:54;9.83;;;3.70;;
4726;SDS011;2377;51.734;8.950;2023-06-10T07:48:22;6.33;;;3.40;;
4726;SDS011;2377;51.734;8.950;2023-06-10T07:50:49;4.83;;;3.37;;
4726;SDS011;2377;51.734;8.950;2023-06-10T07:53:16;7.40;;;3.53;;
4726;SDS011;2377;51.734;8.950;2023-06-10T07:55:46;5.80;;;3.70;;
4726;SDS011;2377;51.734;8.950;2023-06-10T07:58:13;6.47;;;3.50;;
4726;SDS011;2377;51.734;8.950;2023-06-10T08:00:40;5.83;;;3.90;;
4726;SDS011;2377;51.734;8.950;2023-06-10T08:03:07;4.70;;;3.10;;
4726;SDS011;2377;51.734;8.950;2023-06-10T08:05:34;6.70;;;3.77;;
4726;SDS011;2377;51.734;8.950;2023-06-10T08:08:01;6.93;;;3.30;;
4726;SDS011;2377;51.734;8.950;2023-06-10T08:10:28;6.43;;;3.60;;
4726;SDS011;2377;51.734;8.950;2023-06-10T08:12:57;5.13;;;3.30;;
4726;SDS011;2377;51.734;8.950;2023-06-10T08:15:24;6.77;;;3.80;;
4726;SDS011;2377;51.734;8.950;2023-06-10T08:17:53;5.30;;;3.60;;
4726;SDS011;2377;51.734;8.950;2023-06-10T08:20:21;6.80;;;3.93;;
4726;SDS011;2377;51.734;8.950;2023-06-10T08:22:48;6.07;;;3.53;;
4726;SDS011;2377;51.734;8.950;2023-06-10T08:25:15;4.97;;;3.53;;
4726;SDS011;2377;51.734;8.950;2023-06-10T08:27:42;6.13;;;3.77;;
4726;SDS011;2377;51.734;8.950;2023-06-10T08:30:11;5.77;;;3.40;;
4726;SDS011;2377;51.734;8.950;2023-06-10T08:32:39;5.20;;;3.53;;
4726;SDS011;2377;51.734;8.950;2023-06-10T08:35:06;5.60;;;3.57;;
4726;SDS011;2377;51.734;8.950;2023-06-10T08:37:34;5.67;;;3.40;;
4726;SDS011;2377;51.734;8.950;2023-06-10T08:40:01;17.63;;;4.30;;
4726;SDS011;2377;51.734;8.950;2023-06-10T08:42:32;7.13;;;4.00;;
4726;SDS011;2377;51.734;8.950;2023-06-10T08:45:05;7.70;;;4.10;;
4726;SDS011;2377;51.734;8.950;2023-06-10T08:47:42;6.43;;;3.87;;
4726;SDS011;2377;51.734;8.950;2023-06-10T08:50:12;6.80;;;3.97;;
4726;SDS011;2377;51.734;8.950;2023-06-10T08:52:41;8.43;;;4.00;;
4726;SDS011;2377;51.734;8.950;2023-06-10T08:55:12;7.40;;;3.67;;
4726;SDS011;2377;51.734;8.950;2023-06-10T08:57:44;5.67;;;3.97;;
4726;SDS011;2377;51.734;8.950;2023-06-10T09:00:14;9.67;;;4.03;;
4726;SDS011;2377;51.734;8.950;2023-06-10T09:02:43;5.43;;;3.83;;
4726;SDS011;2377;51.734;8.950;2023-06-10T09:05:11;7.93;;;3.73;;
4726;SDS011;2377;51.734;8.950;2023-06-10T09:07:40;5.70;;;3.50;;
4726;SDS011;2377;51.734;8.950;2023-06-10T09:10:08;7.37;;;4.37;;
4726;SDS011;2377;51.734;8.950;2023-06-10T09:12:37;9.57;;;4.07;;
4726;SDS011;2377;51.734;8.950;2023-06-10T09:15:04;6.53;;;4.37;;
4726;SDS011;2377;51.734;8.950;2023-06-10T09:17:34;8.80;;;4.87;;
4726;SDS011;2377;51.734;8.950;2023-06-10T09:20:03;7.30;;;4.07;;
4726;SDS011;2377;51.734;8.950;2023-06-10T09:22:31;6.10;;;3.90;;
4726;SDS011;2377;51.734;8.950;2023-06-10T09:25:03;5.83;;;3.50;;
4726;SDS011;2377;51.734;8.950;2023-06-10T09:27:33;6.87;;;4.00;;
4726;SDS011;2377;51.734;8.950;2023-06-10T09:30:23;6.10;;;4.13;;
4726;SDS011;2377;51.734;8.950;2023-06-10T09:32:55;8.67;;;4.30;;
4726;SDS011;2377;51.734;8.950;2023-06-10T09:35:23;7.13;;;4.47;;
4726;SDS011;2377;51.734;8.950;2023-06-10T09:37:51;6.00;;;3.97;;
4726;SDS011;2377;51.734;8.950;2023-06-10T09:40:19;9.40;;;4.37;;
4726;SDS011;2377;51.734;8.950;2023-06-10T09:42:49;7.00;;;4.13;;
4726;SDS011;2377;51.734;8.950;2023-06-10T09:45:21;6.07;;;3.87;;
4726;SDS011;2377;51.734;8.950;2023-06-10T09:47:51;6.30;;;4.27;;
4726;SDS011;2377;51.734;8.950;2023-06-10T09:50:20;8.23;;;4.40;;
4726;SDS011;2377;51.734;8.950;2023-06-10T09:52:47;8.30;;;4.50;;
4726;SDS011;2377;51.734;8.950;2023-06-10T09:55:14;7.90;;;4.03;;
4726;SDS011;2377;51.734;8.950;2023-06-10T09:57:42;6.20;;;4.20;;
4726;SDS011;2377;51.734;8.950;2023-06-10T10:00:13;5.70;;;4.10;;
4726;SDS011;2377;51.734;8.950;2023-06-10T10:02:45;9.00;;;4.90;;
4726;SDS011;2377;51.734;8.950;2023-06-10T10:05:14;8.73;;;4.80;;
4726;SDS011;2377;51.734;8.950;2023-06-10T10:07:44;11.57;;;4.40;;
4726;SDS011;2377;51.734;8.950;2023-06-10T10:10:12;7.50;;;4.63;;
4726;SDS011;2377;51.734;8.950;2023-06-10T10:12:48;7.03;;;4.30;;
4726;SDS011;2377;51.734;8.950;2023-06-10T10:15:20;7.87;;;5.00;;
4726;SDS011;2377;51.734;8.950;2023-06-10T10:17:51;7.10;;;4.27;;
4726;SDS011;2377;51.734;8.950;2023-06-10T10:20:27;9.20;;;5.20;;
4726;SDS011;2377;51.734;8.950;2023-06-10T10:23:02;7.20;;;5.07;;
4726;SDS011;2377;51.734;8.950;2023-06-10T10:25:34;7.20;;;4.57;;
4726;SDS011;2377;51.734;8.950;2023-06-10T10:28:08;9.13;;;4.30;;
4726;SDS011;2377;51.734;8.950;2023-06-10T10:30:37;12.20;;;4.20;;
4726;SDS011;2377;51.734;8.950;2023-06-10T10:33:09;7.10;;;5.23;;
4726;SDS011;2377;51.734;8.950;2023-06-10T10:35:45;5.20;;;4.23;;
4726;SDS011;2377;51.734;8.950;2023-06-10T10:38:14;7.73;;;4.37;;
4726;SDS011;2377;51.734;8.950;2023-06-10T10:40:42;6.00;;;4.10;;
4726;SDS011;2377;51.734;8.950;2023-06-10T10:43:11;7.80;;;4.97;;
4726;SDS011;2377;51.734;8.950;2023-06-10T10:45:40;7.60;;;5.43;;
4726;SDS011;2377;51.734;8.950;2023-06-10T10:48:08;5.17;;;4.03;;
4726;SDS011;2377;51.734;8.950;2023-06-10T10:50:37;6.27;;;4.37;;
4726;SDS011;2377;51.734;8.950;2023-06-10T10:53:05;7.17;;;4.63;;
4726;SDS011;2377;51.734;8.950;2023-06-10T10:55:34;10.43;;;4.30;;
4726;SDS011;2377;51.734;8.950;2023-06-10T10:58:03;6.63;;;4.47;;
4726;SDS011;2377;51.734;8.950;2023-06-10T11:00:32;7.90;;;4.80;;
4726;SDS011;2377;51.734;8.950;2023-06-10T11:03:04;9.70;;;5.13;;
4726;SDS011;2377;51.734;8.950;2023-06-10T11:05:37;5.63;;;4.43;;
4726;SDS011;2377;51.734;8.950;2023-06-10T11:08:09;10.17;;;5.13;;
4726;SDS011;2377;51.734;8.950;2023-06-10T11:10:39;6.57;;;4.60;;
4726;SDS011;2377;51.734;8.950;2023-06-10T11:13:08;9.03;;;4.50;;
4726;SDS011;2377;51.734;8.950;2023-06-10T11:15:43;6.00;;;4.83;;
4726;SDS011;2377;51.734;8.950;2023-06-10T11:18:13;7.47;;;5.20;;
4726;SDS011;2377;51.734;8.950;2023-06-10T11:20:58;7.60;;;4.53;;
4726;SDS011;2377;51.734;8.950;2023-06-10T11:23:40;6.23;;;4.70;;
4726;SDS011;2377;51.734;8.950;2023-06-10T11:26:20;8.30;;;5.33;;
4726;SDS011;2377;51.734;8.950;2023-06-10T11:29:06;7.20;;;5.10;;
4726;SDS011;2377;51.734;8.950;2023-06-10T11:31:44;6.30;;;4.30;;
4726;SDS011;2377;51.734;8.950;2023-06-10T11:34:20;7.70;;;4.80;;
4726;SDS011;2377;51.734;8.950;2023-06-10T11:36:52;9.70;;;4.80;;
4726;SDS011;2377;51.734;8.950;2023-06-10T11:39:20;7.27;;;5.17;;
4726;SDS011;2377;51.734;8.950;2023-06-10T11:41:52;7.80;;;5.23;;
4726;SDS011;2377;51.734;8.950;2023-06-10T11:44:20;6.60;;;4.40;;
4726;SDS011;2377;51.734;8.950;2023-06-10T11:46:48;7.17;;;4.73;;
4726;SDS011;2377;51.734;8.950;2023-06-10T11:49:16;8.60;;;5.77;;
4726;SDS011;2377;51.734;8.950;2023-06-10T11:51:44;15.93;;;8.17;;
4726;SDS011;2377;51.734;8.950;2023-06-10T11:54:16;9.07;;;5.20;;
4726;SDS011;2377;51.734;8.950;2023-06-10T11:56:45;9.57;;;5.93;;
4726;SDS011;2377;51.734;8.950;2023-06-10T11:59:15;8.50;;;5.37;;
4726;SDS011;2377;51.734;8.950;2023-06-10T12:01:42;7.77;;;5.70;;
4726;SDS011;2377;51.734;8.950;2023-06-10T12:04:11;8.73;;;5.40;;
4726;SDS011;2377;51.734;8.950;2023-06-10T12:06:41;8.00;;;5.87;;
4726;SDS011;2377;51.734;8.950;2023-06-10T12:09:15;6.37;;;4.83;;
4726;SDS011;2377;51.734;8.950;2023-06-10T12:11:48;7.57;;;5.37;;
4726;SDS011;2377;51.734;8.950;2023-06-10T12:17:20;8.83;;;5.10;;
4726;SDS011;2377;51.734;8.950;2023-06-10T12:19:49;6.63;;;4.97;;
4726;SDS011;2377;51.734;8.950;2023-06-10T12:22:17;7.70;;;5.23;;
4726;SDS011;2377;51.734;8.950;2023-06-10T12:24:45;7.87;;;5.47;;
4726;SDS011;2377;51.734;8.950;2023-06-10T12:27:25;7.97;;;6.10;;
4726;SDS011;2377;51.734;8.950;2023-06-10T12:29:56;6.87;;;5.17;;
4726;SDS011;2377;51.734;8.950;2023-06-10T12:32:35;9.73;;;5.00;;
4726;SDS011;2377;51.734;8.950;2023-06-10T12:35:08;7.10;;;4.93;;
4726;SDS011;2377;51.734;8.950;2023-06-10T12:37:38;9.40;;;6.37;;
4726;SDS011;2377;51.734;8.950;2023-06-10T12:40:05;15.23;;;5.20;;
4726;SDS011;2377;51.734;8.950;2023-06-10T12:42:35;8.67;;;6.30;;
4726;SDS011;2377;51.734;8.950;2023-06-10T12:45:04;7.33;;;5.43;;
4726;SDS011;2377;51.734;8.950;2023-06-10T12:47:35;7.77;;;5.17;;
4726;SDS011;2377;51.734;8.950;2023-06-10T12:50:04;7.50;;;5.50;;
4726;SDS011;2377;51.734;8.950;2023-06-10T12:52:32;6.60;;;5.23;;
4726;SDS011;2377;51.734;8.950;2023-06-10T12:54:59;9.30;;;6.60;;
4726;SDS011;2377;51.734;8.950;2023-06-10T12:57:27;14.70;;;6.00;;
4726;SDS011;2377;51.734;8.950;2023-06-10T12:59:54;7.60;;;5.47;;
4726;SDS011;2377;51.734;8.950;2023-06-10T13:02:31;6.97;;;5.70;;
4726;SDS011;2377;51.734;8.950;2023-06-10T13:04:58;7.97;;;5.33;;
4726;SDS011;2377;51.734;8.950;2023-06-10T13:07:25;7.77;;;6.20;;
4726;SDS011;2377;51.734;8.950;2023-06-10T13:09:52;6.67;;;5.40;;
4726;SDS011;2377;51.734;8.950;2023-06-10T13:12:20;10.20;;;5.97;;
4726;SDS011;2377;51.734;8.950;2023-06-10T13:14:47;12.27;;;6.90;;
4726;SDS011;2377;51.734;8.950;2023-06-10T13:17:14;10.57;;;6.73;;
4726;SDS011;2377;51.734;8.950;2023-06-10T13:19:43;7.90;;;5.63;;
4726;SDS011;2377;51.734;8.950;2023-06-10T13:22:10;8.53;;;5.70;;
4726;SDS011;2377;51.734;8.950;2023-06-10T13:24:38;10.30;;;6.33;;
4726;SDS011;2377;51.734;8.950;2023-06-10T13:27:08;7.70;;;5.50;;
4726;SDS011;2377;51.734;8.950;2023-06-10T13:29:35;9.60;;;6.00;;
4726;SDS011;2377;51.734;8.950;2023-06-10T13:32:02;9.70;;;6.20;;
4726;SDS011;2377;51.734;8.950;2023-06-10T13:34:30;9.43;;;6.20;;
4726;SDS011;2377;51.734;8.950;2023-06-10T13:36:59;22.03;;;6.07;;
4726;SDS011;2377;51.734;8.950;2023-06-10T13:39:26;7.50;;;5.50;;
4726;SDS011;2377;51.734;8.950;2023-06-10T13:41:53;24.13;;;6.63;;
4726;SDS011;2377;51.734;8.950;2023-06-10T13:44:20;8.20;;;5.90;;
4726;SDS011;2377;51.734;8.950;2023-06-10T13:46:47;7.73;;;5.60;;
4726;SDS011;2377;51.734;8.950;2023-06-10T13:49:14;7.53;;;6.50;;
4726;SDS011;2377;51.734;8.950;2023-06-10T13:51:41;9.53;;;5.90;;
4726;SDS011;2377;51.734;8.950;2023-06-10T13:54:09;9.10;;;5.90;;
4726;SDS011;2377;51.734;8.950;2023-06-10T13:56:39;9.83;;;5.80;;
4726;SDS011;2377;51.734;8.950;2023-06-10T13:59:06;7.60;;;5.90;;
4726;SDS011;2377;51.734;8.950;2023-06-10T14:01:33;7.63;;;5.70;;
4726;SDS011;2377;51.734;8.950;2023-06-10T14:04:02;8.33;;;5.70;;
4726;SDS011;2377;51.734;8.950;2023-06-10T14:06:32;10.97;;;5.90;;
4726;SDS011;2377;51.734;8.950;2023-06-10T14:08:59;6.23;;;5.30;;
4726;SDS011;2377;51.734;8.950;2023-06-10T14:11:28;6.53;;;5.37;;
4726;SDS011;2377;51.734;8.950;2023-06-10T14:13:55;9.43;;;6.33;;
4726;SDS011;2377;51.734;8.950;2023-06-10T14:16:22;9.20;;;6.30;;
4726;SDS011;2377;51.734;8.950;2023-06-10T14:18:50;7.97;;;5.97;;
4726;SDS011;2377;51.734;8.950;2023-06-10T14:21:17;8.30;;;5.60;;
4726;SDS011;2377;51.734;8.950;2023-06-10T14:23:44;7.50;;;6.00;;
4726;SDS011;2377;51.734;8.950;2023-06-10T14:26:14;10.20;;;5.70;;
4726;SDS011;2377;51.734;8.950;2023-06-10T14:28:42;8.43;;;6.00;;
4726;SDS011;2377;51.734;8.950;2023-06-10T14:31:10;9.43;;;6.00;;
4726;SDS011;2377;51.734;8.950;2023-06-10T14:33:37;10.40;;;6.97;;
4726;SDS011;2377;51.734;8.950;2023-06-10T14:36:04;8.93;;;6.27;;
4726;SDS011;2377;51.734;8.950;2023-06-10T14:38:32;10.23;;;6.17;;
4726;SDS011;2377;51.734;8.950;2023-06-10T14:40:59;6.77;;;5.33;;
4726;SDS011;2377;51.734;8.950;2023-06-10T14:43:27;7.50;;;6.20;;
4726;SDS011;2377;51.734;8.950;2023-06-10T14:45:55;8.63;;;5.40;;
4726;SDS011;2377;51.734;8.950;2023-06-10T14:48:23;9.40;;;6.70;;
4726;SDS011;2377;51.734;8.950;2023-06-10T14:50:50;9.47;;;6.63;;
4726;SDS011;2377;51.734;8.950;2023-06-10T14:53:17;9.50;;;6.43;;
4726;SDS011;2377;51.734;8.950;2023-06-10T14:55:44;9.70;;;6.90;;
4726;SDS011;2377;51.734;8.950;2023-06-10T14:58:12;8.83;;;5.93;;
4726;SDS011;2377;51.734;8.950;2023-06-10T15:00:39;6.90;;;5.53;;
4726;SDS011;2377;51.734;8.950;2023-06-10T15:03:07;7.70;;;5.53;;
4726;SDS011;2377;51.734;8.950;2023-06-10T15:05:34;8.10;;;5.50;;
4726;SDS011;2377;51.734;8.950;2023-06-10T15:08:02;10.20;;;6.87;;
4726;SDS011;2377;51.734;8.950;2023-06-10T15:10:30;8.60;;;5.87;;
4726;SDS011;2377;51.734;8.950;2023-06-10T15:12:57;8.57;;;5.70;;
4726;SDS011;2377;51.734;8.950;2023-06-10T15:15:24;8.77;;;5.73;;
4726;SDS011;2377;51.734;8.950;2023-06-10T15:17:51;7.80;;;6.23;;
4726;SDS011;2377;51.734;8.950;2023-06-10T15:20:20;17.17;;;5.53;;
4726;SDS011;2377;51.734;8.950;2023-06-10T15:22:47;8.23;;;6.17;;
4726;SDS011;2377;51.734;8.950;2023-06-10T15:25:15;7.73;;;5.40;;
4726;SDS011;2377;51.734;8.950;2023-06-10T15:27:42;7.77;;;5.30;;